Time;durP1;ratioP1;P1;durP2;ratioP2;P2;SDS_P1;SDS_P2;PMS_P1;PMS_P2;Temp;Humidity;BMP_temperature;BMP_pressure;BME280_temperature;BME280_humidity;BME280_pressure;Samples;Min_cycle;Max_cycle;Signal;HPM_P1;HPM_P2
2022/03/05 00:01:40;;;;;;;17.70;10.90;;;0.00;99.90;;;;;;5054842;28;20049;-65
2022/03/05 00:04:13;;;;;;;21.25;10.48;;;0.00;99.90;;;;;;5072568;28;20044;-65
2022/03/05 00:06:42;;;;;;;15.55;10.85;;;0.00;99.90;;;;;;5051995;28;20570;-66
2022/03/05 00:09:11;;;;;;;19.17;11.30;;;0.00;99.90;;;;;;5042334;28;20037;-66
2022/03/05 00:11:49;;;;;;;17.63;9.65;;;0.00;99.90;;;;;;5055824;28;20451;-66
2022/03/05 00:14:27;;;;;;;18.35;10.13;;;0.00;99.90;;;;;;5076460;28;20658;-65
2022/03/05 00:16:59;;;;;;;16.90;9.88;;;0.00;99.90;;;;;;5076520;28;20567;-65
2022/03/05 00:19:27;;;;;;;16.42;8.77;;;-0.10;99.90;;;;;;5058576;28;20048;-65
2022/03/05 00:21:54;;;;;;;18.55;10.02;;;-0.10;99.90;;;;;;5040683;28;20226;-65
2022/03/05 00:24:20;;;;;;;17.92;10.18;;;-0.10;99.90;;;;;;5058361;28;20049;-66
2022/03/05 00:26:47;;;;;;;19.02;10.32;;;-0.10;99.90;;;;;;5057305;28;20083;-66
2022/03/05 00:29:14;;;;;;;17.30;10.13;;;-0.20;99.90;;;;;;5078492;28;20044;-66
2022/03/05 00:31:40;;;;;;;16.45;10.15;;;-0.20;99.90;;;;;;5095319;28;20071;-66
2022/03/05 00:34:07;;;;;;;17.63;8.93;;;-0.20;99.90;;;;;;5095310;28;20073;-65
2022/03/05 00:36:34;;;;;;;16.17;10.75;;;-0.20;99.90;;;;;;5098039;28;20073;-66
2022/03/05 00:39:00;;;;;;;18.98;11.32;;;-0.20;99.90;;;;;;5095155;28;20051;-66
2022/03/05 00:41:25;;;;;;;18.65;10.50;;;-0.20;99.90;;;;;;5095354;28;20059;-66
2022/03/05 00:43:51;;;;;;;18.90;11.20;;;-0.20;99.90;;;;;;5095260;28;20115;-66
2022/03/05 00:46:17;;;;;;;21.02;10.63;;;-0.30;99.90;;;;;;5078360;28;20035;-66
2022/03/05 00:48:43;;;;;;;17.02;10.40;;;-0.30;99.90;;;;;;5093485;28;20114;-65
2022/03/05 00:51:09;;;;;;;12.70;7.88;;;-0.30;99.90;;;;;;5079078;28;20563;-66
2022/03/05 00:53:35;;;;;;;18.65;10.30;;;-0.30;99.90;;;;;;5096412;28;20035;-66
2022/03/05 00:56:01;;;;;;;20.13;10.43;;;-0.30;99.90;;;;;;5094003;28;20084;-66
2022/03/05 00:58:27;;;;;;;19.40;11.02;;;-0.40;99.90;;;;;;5096292;28;20548;-65
2022/03/05 01:00:53;;;;;;;16.33;10.65;;;-0.40;99.90;;;;;;5095996;28;20043;-66
2022/03/05 01:03:19;;;;;;;29.48;11.77;;;-0.40;99.90;;;;;;5079515;28;20122;-66
2022/03/05 01:05:44;;;;;;;15.02;8.15;;;-0.40;99.90;;;;;;5096290;28;20041;-66
2022/03/05 01:08:12;;;;;;;16.60;9.48;;;-0.40;99.90;;;;;;5079391;28;20043;-66
2022/03/05 01:10:37;;;;;;;21.52;10.75;;;-0.40;99.90;;;;;;5097069;28;20114;-66
2022/03/05 01:13:05;;;;;;;16.75;9.90;;;-0.50;99.90;;;;;;5097762;28;20130;-66
2022/03/05 01:15:31;;;;;;;19.42;10.77;;;-0.50;99.90;;;;;;5097734;28;20094;-66
2022/03/05 01:17:57;;;;;;;19.35;9.95;;;-0.60;99.90;;;;;;5097826;28;20463;-66
2022/03/05 01:20:23;;;;;;;19.95;10.88;;;-0.60;99.90;;;;;;5097920;28;20098;-66
2022/03/05 01:22:49;;;;;;;21.98;10.95;;;-0.60;99.90;;;;;;5080681;28;20043;-66
2022/03/05 01:25:15;;;;;;;18.08;9.40;;;-0.70;99.90;;;;;;5095104;28;20860;-66
2022/03/05 01:27:41;;;;;;;19.98;10.75;;;-0.70;99.90;;;;;;5097653;28;20119;-66
2022/03/05 01:30:07;;;;;;;19.73;10.63;;;-0.70;99.90;;;;;;5080386;28;20032;-66
2022/03/05 01:32:32;;;;;;;17.30;11.07;;;-0.70;99.90;;;;;;5097469;28;20055;-66
2022/03/05 01:34:58;;;;;;;20.35;11.45;;;-0.80;99.90;;;;;;5097555;28;20047;-66
2022/03/05 01:37:24;;;;;;;18.27;10.20;;;-0.80;99.90;;;;;;5097408;28;20075;-66
2022/03/05 01:39:50;;;;;;;16.48;9.80;;;-0.80;99.90;;;;;;5097297;28;20073;-66
2022/03/05 01:42:20;;;;;;;19.90;9.90;;;-0.80;99.90;;;;;;5097140;28;20061;-66
2022/03/05 01:44:46;;;;;;;18.67;10.25;;;-0.80;99.90;;;;;;5080345;28;20468;-66
2022/03/05 01:47:12;;;;;;;17.65;9.77;;;-0.80;99.90;;;;;;5080313;28;20043;-66
2022/03/05 01:49:38;;;;;;;20.42;10.20;;;-0.80;99.90;;;;;;5097356;28;20069;-66
2022/03/05 01:52:04;;;;;;;17.35;9.70;;;-0.80;99.90;;;;;;5097436;28;20464;-66
2022/03/05 01:54:30;;;;;;;18.60;10.63;;;-0.80;99.90;;;;;;5093891;28;20040;-66
2022/03/05 01:56:58;;;;;;;20.98;10.60;;;-0.80;99.90;;;;;;5095161;28;20432;-66
2022/03/05 01:59:24;;;;;;;18.42;10.35;;;-0.80;99.90;;;;;;5097039;28;20039;-66
2022/03/05 02:01:50;;;;;;;19.80;11.18;;;-0.90;99.90;;;;;;5079984;28;20042;-66
2022/03/05 02:04:17;;;;;;;18.65;9.60;;;-0.90;99.90;;;;;;5096938;28;20040;-66
2022/03/05 02:06:43;;;;;;;20.30;10.15;;;-0.90;99.90;;;;;;5096945;28;20384;-66
2022/03/05 02:09:09;;;;;;;17.42;10.32;;;-0.90;99.90;;;;;;5080195;28;20031;-66
2022/03/05 02:11:35;;;;;;;19.73;9.60;;;-1.00;99.90;;;;;;5096937;28;20047;-66
2022/03/05 02:14:01;;;;;;;21.67;10.85;;;-1.00;99.90;;;;;;5079770;28;20410;-66
2022/03/05 02:16:27;;;;;;;20.48;10.48;;;-1.00;99.90;;;;;;5096850;28;20040;-66
2022/03/05 02:18:57;;;;;;;20.60;11.43;;;-1.00;99.90;;;;;;5096636;28;20093;-66
2022/03/05 02:21:25;;;;;;;20.65;11.38;;;-1.10;99.90;;;;;;5079516;28;20488;-66
2022/03/05 02:23:51;;;;;;;19.45;10.60;;;-1.10;99.90;;;;;;5096288;28;20146;-66
2022/03/05 02:26:17;;;;;;;17.50;9.65;;;-1.10;99.90;;;;;;5094422;28;20035;-66
2022/03/05 02:28:42;;;;;;;20.40;10.75;;;-1.10;99.90;;;;;;5095734;28;20445;-66
2022/03/05 02:31:08;;;;;;;15.82;9.80;;;-1.10;99.90;;;;;;5096284;28;20039;-66
2022/03/05 02:33:34;;;;;;;20.92;10.85;;;-1.00;99.90;;;;;;5096644;28;20040;-66
2022/03/05 02:36:01;;;;;;;17.25;10.38;;;-1.10;99.90;;;;;;5079355;28;20074;-66
2022/03/05 02:38:27;;;;;;;18.95;10.70;;;-1.10;99.90;;;;;;5079340;28;20044;-66
2022/03/05 02:40:54;;;;;;;19.15;10.60;;;-1.10;99.90;;;;;;5096067;28;20042;-66
2022/03/05 02:43:25;;;;;;;19.90;10.52;;;-1.10;99.90;;;;;;5096271;28;20036;-66
2022/03/05 02:45:51;;;;;;;20.35;10.40;;;-1.20;99.90;;;;;;5096300;28;20040;-66
2022/03/05 02:48:19;;;;;;;18.38;10.35;;;-1.20;99.90;;;;;;5079212;28;20084;-66
2022/03/05 02:50:46;;;;;;;18.55;10.60;;;-1.20;99.90;;;;;;5095896;28;20522;-66
2022/03/05 02:53:13;;;;;;;21.77;11.90;;;-1.30;99.90;;;;;;5079370;28;20107;-66
2022/03/05 02:55:39;;;;;;;17.65;10.20;;;-1.30;99.90;;;;;;5076901;28;20043;-66
2022/03/05 02:58:05;;;;;;;17.20;10.43;;;-1.30;99.90;;;;;;5079395;28;20043;-66
2022/03/05 03:00:32;;;;;;;19.15;10.45;;;-1.40;99.90;;;;;;5078810;28;20514;-66
2022/03/05 03:02:58;;;;;;;19.92;10.38;;;-1.40;99.90;;;;;;5095748;28;20043;-66
2022/03/05 03:05:24;;;;;;;17.95;9.70;;;-1.50;99.90;;;;;;5095908;28;20047;-66
2022/03/05 03:07:50;;;;;;;17.77;10.05;;;-1.60;99.90;;;;;;5078777;28;20419;-66
2022/03/05 03:10:16;;;;;;;22.45;10.88;;;-1.60;99.90;;;;;;5095838;28;20036;-66
2022/03/05 03:12:43;;;;;;;19.13;9.90;;;-1.70;99.90;;;;;;5095849;28;20066;-66
2022/03/05 03:15:11;;;;;;;19.45;10.85;;;-1.70;99.90;;;;;;5095530;28;20047;-66
2022/03/05 03:17:49;;;;;;;23.40;10.50;;;-1.80;99.90;;;;;;5095659;28;20035;-66
2022/03/05 03:20:33;;;;;;;19.45;10.55;;;-1.80;99.90;;;;;;5095760;28;20043;-66
2022/03/05 03:22:59;;;;;;;20.88;10.63;;;-1.90;99.90;;;;;;5095304;28;20563;-66
2022/03/05 03:25:25;;;;;;;27.27;10.85;;;-1.90;99.90;;;;;;5092972;28;20206;-67
2022/03/05 03:27:51;;;;;;;18.15;9.60;;;-1.90;99.90;;;;;;5095677;28;20369;-66
2022/03/05 03:30:18;;;;;;;19.05;10.55;;;-1.90;99.90;;;;;;5095443;28;20047;-66
2022/03/05 03:32:44;;;;;;;21.90;10.95;;;-1.80;99.90;;;;;;5095470;28;20059;-66
2022/03/05 03:35:12;;;;;;;19.58;10.98;;;-1.80;99.90;;;;;;5078718;28;20054;-66
2022/03/05 03:37:39;;;;;;;17.50;9.55;;;-1.80;99.90;;;;;;5095209;28;20040;-66
2022/03/05 03:40:08;;;;;;;22.27;10.38;;;-1.80;99.90;;;;;;5094481;28;20039;-66
2022/03/05 03:42:34;;;;;;;17.38;9.60;;;-1.80;99.90;;;;;;5078222;28;20075;-67
2022/03/05 03:45:00;;;;;;;18.67;9.75;;;-1.80;99.90;;;;;;5078248;28;20032;-67
2022/03/05 03:47:26;;;;;;;18.08;10.52;;;-1.80;99.90;;;;;;5095009;28;20047;-66
2022/03/05 03:49:52;;;;;;;16.75;9.40;;;-1.80;99.90;;;;;;5078570;28;20035;-66
2022/03/05 03:52:18;;;;;;;16.45;9.52;;;-1.90;99.90;;;;;;5095244;28;20044;-67
2022/03/05 03:54:46;;;;;;;16.40;8.68;;;-1.90;99.90;;;;;;5078473;28;20043;-66
2022/03/05 03:57:12;;;;;;;17.80;8.88;;;-2.00;99.90;;;;;;5092888;28;20495;-67
2022/03/05 03:59:38;;;;;;;19.40;9.25;;;-2.10;99.90;;;;;;5095218;28;20368;-66
2022/03/05 04:02:05;;;;;;;18.30;9.02;;;-2.10;99.90;;;;;;5094877;28;20071;-66
2022/03/05 04:04:31;;;;;;;17.38;8.95;;;-2.10;99.90;;;;;;5078099;28;20042;-66
2022/03/05 04:09:41;;;;;;;20.15;8.07;;;-2.00;99.90;;;;;;5094845;28;20044;-67
2022/03/05 04:12:07;;;;;;;15.00;7.88;;;-1.90;99.90;;;;;;5095031;28;20100;-66
2022/03/05 04:14:33;;;;;;;21.13;9.20;;;-1.90;99.90;;;;;;5094754;28;20083;-66
2022/03/05 04:17:00;;;;;;;15.70;7.65;;;-1.80;99.90;;;;;;5094984;28;20054;-66
2022/03/05 04:19:26;;;;;;;15.65;8.65;;;-1.70;99.90;;;;;;5095075;28;20047;-66
2022/03/05 04:21:52;;;;;;;16.65;9.00;;;-1.70;99.90;;;;;;5094780;28;20376;-67
2022/03/05 04:24:18;;;;;;;17.88;9.43;;;-1.70;99.90;;;;;;5094667;28;20062;-67
2022/03/05 04:26:43;;;;;;;16.83;7.97;;;-1.60;99.90;;;;;;5092413;28;20114;-67
2022/03/05 04:29:09;;;;;;;15.45;8.32;;;-1.60;99.90;;;;;;5078118;28;20051;-67
2022/03/05 04:31:35;;;;;;;17.35;8.70;;;-1.60;99.90;;;;;;5094830;28;20039;-66
2022/03/05 04:34:01;;;;;;;16.35;8.02;;;-1.60;99.90;;;;;;5095017;28;20043;-67
2022/03/05 04:36:27;;;;;;;16.77;8.52;;;-1.60;99.90;;;;;;5094601;28;20403;-67
2022/03/05 04:38:52;;;;;;;10.15;5.72;;;-1.50;99.90;;;;;;5094947;28;20040;-67
2022/03/05 04:41:18;;;;;;;18.27;8.38;;;-1.50;99.90;;;;;;5077576;28;20433;-66
2022/03/05 04:43:44;;;;;;;17.77;8.95;;;-1.50;99.90;;;;;;5094534;28;20122;-66
2022/03/05 04:46:12;;;;;;;18.15;8.52;;;-1.50;99.90;;;;;;5077728;28;20096;-66
2022/03/05 04:48:38;;;;;;;17.50;8.43;;;-1.50;99.90;;;;;;5094592;28;20077;-66
2022/03/05 04:51:03;;;;;;;17.38;9.00;;;-1.50;99.90;;;;;;5077677;28;20040;-67
2022/03/05 04:53:29;;;;;;;17.17;8.82;;;-1.50;99.90;;;;;;5098228;28;20047;-66
2022/03/05 04:55:55;;;;;;;17.52;8.48;;;-1.50;99.90;;;;;;5095997;28;20510;-66
2022/03/05 04:58:21;;;;;;;14.27;6.25;;;-1.50;99.90;;;;;;5098324;28;20122;-66
2022/03/05 05:00:47;;;;;;;16.08;7.75;;;-1.50;99.90;;;;;;5081293;28;20414;-67
2022/03/05 05:03:13;;;;;;;17.33;8.18;;;-1.40;99.90;;;;;;5097964;28;20503;-67
2022/03/05 05:05:39;;;;;;;16.52;8.48;;;-1.40;99.90;;;;;;5098363;28;20126;-66
2022/03/05 05:08:04;;;;;;;16.75;9.30;;;-1.40;99.90;;;;;;5097934;28;20415;-66
2022/03/05 05:10:30;;;;;;;17.98;7.82;;;-1.40;99.90;;;;;;5081297;28;20036;-66
2022/03/05 05:12:56;;;;;;;20.10;7.82;;;-1.40;99.90;;;;;;5081016;28;20043;-66
2022/03/05 05:15:22;;;;;;;17.98;9.27;;;-1.40;99.90;;;;;;5098068;28;20036;-67
2022/03/05 05:17:48;;;;;;;15.77;8.70;;;-1.40;99.90;;;;;;5097724;28;20126;-67
2022/03/05 05:20:14;;;;;;;20.63;8.73;;;-1.40;99.90;;;;;;5097943;28;20043;-66
2022/03/05 05:22:40;;;;;;;20.25;8.70;;;-1.40;99.90;;;;;;5097603;28;20511;-67
2022/03/05 05:25:07;;;;;;;18.52;9.00;;;-1.40;99.90;;;;;;5096081;28;20070;-67
2022/03/05 05:27:37;;;;;;;20.05;8.77;;;-1.50;99.90;;;;;;5097435;28;20054;-67
2022/03/05 05:30:07;;;;;;;18.67;9.43;;;-1.50;99.90;;;;;;5097554;28;20114;-67
2022/03/05 05:32:33;;;;;;;16.27;7.47;;;-1.50;99.90;;;;;;5097565;28;20488;-67
2022/03/05 05:34:58;;;;;;;15.90;7.70;;;-1.50;99.90;;;;;;5080612;28;20092;-67
2022/03/05 05:37:24;;;;;;;16.30;9.20;;;-1.50;99.90;;;;;;5097410;28;20051;-67
2022/03/05 05:39:50;;;;;;;20.73;10.20;;;-1.50;99.90;;;;;;5080427;28;20097;-67
2022/03/05 05:42:16;;;;;;;24.27;9.73;;;-1.50;99.90;;;;;;5080548;28;20086;-67
2022/03/05 05:44:42;;;;;;;16.77;8.95;;;-1.50;99.90;;;;;;5097505;28;20361;-67
2022/03/05 05:47:09;;;;;;;20.42;9.52;;;-1.50;99.90;;;;;;5097497;28;20040;-67
2022/03/05 05:49:36;;;;;;;19.70;9.57;;;-1.50;99.90;;;;;;5080349;28;20468;-67
2022/03/05 05:52:03;;;;;;;16.40;8.02;;;-1.60;99.90;;;;;;5097262;28;20074;-67
2022/03/05 05:54:29;;;;;;;24.23;11.82;;;-1.60;99.90;;;;;;5080400;28;20376;-67
2022/03/05 05:56:54;;;;;;;19.10;8.95;;;-1.60;99.90;;;;;;5094733;28;20040;-67
2022/03/05 05:59:20;;;;;;;17.90;9.48;;;-1.60;99.90;;;;;;5096847;28;20039;-67
2022/03/05 06:01:46;;;;;;;19.48;9.10;;;-1.60;99.90;;;;;;5097065;28;20085;-67
2022/03/05 06:04:12;;;;;;;18.67;9.60;;;-1.60;99.90;;;;;;5078878;28;20051;-67
2022/03/05 06:06:38;;;;;;;18.15;8.65;;;-1.60;99.90;;;;;;5096892;28;20051;-67
2022/03/05 06:09:04;;;;;;;19.77;9.05;;;-1.60;99.90;;;;;;5096645;28;20031;-67
2022/03/05 06:11:30;;;;;;;19.63;9.02;;;-1.60;99.90;;;;;;5079966;28;20506;-67
2022/03/05 06:13:56;;;;;;;20.50;9.50;;;-1.60;99.90;;;;;;5096717;28;20047;-67
2022/03/05 06:16:22;;;;;;;20.33;9.93;;;-1.70;99.90;;;;;;5096691;28;20472;-67
2022/03/05 06:18:48;;;;;;;18.95;8.68;;;-1.70;99.90;;;;;;5096523;28;20131;-67
2022/03/05 06:21:14;;;;;;;20.70;9.68;;;-1.70;99.90;;;;;;5079629;28;20050;-67
2022/03/05 06:23:40;;;;;;;17.55;9.02;;;-1.70;99.90;;;;;;5092951;28;20143;-67
2022/03/05 06:26:06;;;;;;;17.33;8.13;;;-1.70;99.90;;;;;;5057337;28;20044;-67
2022/03/05 06:28:33;;;;;;;17.65;8.88;;;-1.70;99.90;;;;;;5076249;28;20036;-67
2022/03/05 06:30:59;;;;;;;18.38;8.68;;;-1.70;99.90;;;;;;5076107;28;20039;-67
2022/03/05 06:33:25;;;;;;;18.55;8.55;;;-1.70;99.90;;;;;;5059440;28;20040;-67
2022/03/05 06:35:51;;;;;;;18.15;8.15;;;-1.70;99.90;;;;;;5076060;28;20483;-67
2022/03/05 06:38:17;;;;;;;19.50;10.07;;;-1.70;99.90;;;;;;5076132;28;20094;-67
2022/03/05 06:40:44;;;;;;;18.25;8.30;;;-1.70;99.90;;;;;;5059296;28;20040;-67
2022/03/05 06:43:11;;;;;;;17.08;7.22;;;-1.60;99.90;;;;;;5059059;28;20123;-67
2022/03/05 06:45:37;;;;;;;16.25;7.55;;;-1.60;99.90;;;;;;5075976;28;20040;-67
2022/03/05 06:48:03;;;;;;;20.55;9.10;;;-1.60;99.90;;;;;;5058964;28;20066;-67
2022/03/05 06:50:29;;;;;;;20.25;9.48;;;-1.50;99.90;;;;;;5076027;28;20439;-67
2022/03/05 06:52:55;;;;;;;19.90;9.07;;;-1.40;99.90;;;;;;5075809;28;20052;-67
2022/03/05 06:55:23;;;;;;;15.98;9.13;;;-1.30;99.90;;;;;;5073436;28;20471;-67
2022/03/05 06:57:49;;;;;;;17.75;8.75;;;-1.20;99.90;;;;;;5075626;28;20044;-67
2022/03/05 07:00:16;;;;;;;18.85;9.43;;;-1.10;99.90;;;;;;5075807;28;20365;-67
2022/03/05 07:02:42;;;;;;;16.88;7.85;;;-1.10;99.90;;;;;;5072780;28;20036;-67
2022/03/05 07:05:09;;;;;;;18.60;8.88;;;-1.00;99.90;;;;;;5075757;28;20040;-67
2022/03/05 07:07:36;;;;;;;19.05;9.80;;;-0.90;99.90;;;;;;5058718;28;20078;-67
2022/03/05 07:10:04;;;;;;;17.45;8.63;;;-0.90;99.90;;;;;;5074952;28;20066;-67
2022/03/05 07:12:29;;;;;;;17.50;8.93;;;-0.90;99.90;;;;;;5074368;28;20051;-67
2022/03/05 07:14:55;;;;;;;17.23;8.95;;;-0.90;99.90;;;;;;5074525;28;20039;-67
2022/03/05 07:17:21;;;;;;;16.75;7.38;;;-0.90;99.90;;;;;;5074281;28;20063;-67
2022/03/05 07:19:47;;;;;;;20.38;9.48;;;-0.80;99.90;;;;;;5058000;28;20126;-67
2022/03/05 07:22:13;;;;;;;14.93;8.32;;;-0.80;99.90;;;;;;5057442;28;20051;-67
2022/03/05 07:24:39;;;;;;;16.00;8.50;;;-0.80;99.90;;;;;;5073964;28;20062;-67
2022/03/05 07:27:05;;;;;;;15.35;7.65;;;-0.70;99.90;;;;;;5071713;28;20055;-67
2022/03/05 07:29:31;;;;;;;16.30;8.63;;;-0.60;99.90;;;;;;5074405;28;20366;-67
2022/03/05 07:31:57;;;;;;;16.65;7.95;;;-0.50;99.90;;;;;;5063840;28;20047;-67
2022/03/05 07:34:22;;;;;;;16.77;8.40;;;-0.40;99.90;;;;;;5069856;28;20039;-67
2022/03/05 07:36:48;;;;;;;13.40;7.75;;;-0.40;99.90;;;;;;5056994;28;20122;-67
2022/03/05 07:39:14;;;;;;;19.10;7.70;;;-0.30;99.90;;;;;;5073993;28;20037;-67
2022/03/05 07:41:41;;;;;;;14.80;7.28;;;-0.30;99.90;;;;;;5057379;28;20036;-67
2022/03/05 07:44:07;;;;;;;12.77;6.38;;;-0.20;99.90;;;;;;5057361;28;20039;-67
2022/03/05 07:46:37;;;;;;;18.05;7.80;;;0.00;99.90;;;;;;5073849;28;20126;-67
2022/03/05 07:49:03;;;;;;;17.63;7.63;;;0.00;99.90;;;;;;5057029;28;20495;-66
2022/03/05 07:51:29;;;;;;;15.13;6.88;;;0.10;99.90;;;;;;5073783;28;20282;-67
2022/03/05 07:53:55;;;;;;;14.45;7.85;;;0.20;99.90;;;;;;5073465;28;20052;-67
2022/03/05 07:56:21;;;;;;;12.25;7.57;;;0.30;99.90;;;;;;5071309;28;20095;-67
2022/03/05 07:58:47;;;;;;;13.05;6.45;;;0.50;99.90;;;;;;5057265;28;20043;-67
2022/03/05 08:01:13;;;;;;;17.33;7.53;;;0.60;99.90;;;;;;5045342;28;20098;-66
2022/03/05 08:03:39;;;;;;;16.38;8.07;;;0.60;99.90;;;;;;5053914;28;20045;-66
2022/03/05 08:06:05;;;;;;;13.55;7.05;;;0.70;99.90;;;;;;5053398;28;20040;-66
2022/03/05 08:08:30;;;;;;;12.57;6.53;;;0.90;99.90;;;;;;5053630;28;20037;-66
2022/03/05 08:10:57;;;;;;;14.73;8.35;;;0.90;99.90;;;;;;5053412;28;20037;-65
2022/03/05 08:13:23;;;;;;;16.83;9.15;;;1.10;99.90;;;;;;5053796;28;20063;-66
2022/03/05 08:15:49;;;;;;;11.18;6.05;;;1.30;99.90;;;;;;5053751;28;20520;-65
2022/03/05 08:18:15;;;;;;;16.40;7.35;;;1.40;99.90;;;;;;5053639;28;20063;-65
2022/03/05 08:20:41;;;;;;;15.23;8.48;;;1.60;99.90;;;;;;5054353;28;20044;-65
2022/03/05 08:23:07;;;;;;;16.90;8.73;;;2.10;99.90;;;;;;5054068;28;20553;-66
2022/03/05 08:25:33;;;;;;;17.00;8.88;;;2.60;99.90;;;;;;5052266;28;20072;-65
2022/03/05 08:27:59;;;;;;;14.57;8.43;;;3.20;99.90;;;;;;5076773;28;20056;-65
2022/03/05 08:30:25;;;;;;;16.75;8.80;;;3.80;99.90;;;;;;5077576;28;20078;-65
2022/03/05 08:32:51;;;;;;;16.88;9.50;;;4.40;99.90;;;;;;5077288;28;20514;-66
2022/03/05 08:35:20;;;;;;;16.30;9.15;;;4.60;99.90;;;;;;5077245;28;20055;-65
2022/03/05 08:37:45;;;;;;;16.52;9.23;;;5.00;99.90;;;;;;5077265;28;20040;-66
2022/03/05 08:40:13;;;;;;;17.63;10.90;;;5.50;99.90;;;;;;5058670;28;20118;-66
2022/03/05 08:42:39;;;;;;;13.90;9.10;;;5.90;99.90;;;;;;5059037;28;20101;-66
2022/03/05 08:45:06;;;;;;;16.88;10.73;;;6.50;99.90;;;;;;5076920;28;20040;-66
2022/03/05 08:47:33;;;;;;;17.50;10.82;;;6.90;99.90;;;;;;5060356;28;20036;-66
2022/03/05 08:49:59;;;;;;;17.30;9.82;;;6.90;99.90;;;;;;5076903;28;20127;-65
2022/03/05 08:52:25;;;;;;;15.73;10.77;;;6.90;99.90;;;;;;5076954;28;20123;-65
2022/03/05 08:54:51;;;;;;;18.98;10.57;;;6.90;99.90;;;;;;5060146;28;20040;-65
2022/03/05 08:57:17;;;;;;;18.85;11.27;;;6.80;99.90;;;;;;5074390;28;20044;-65
2022/03/05 08:59:43;;;;;;;17.13;10.80;;;7.00;99.90;;;;;;5077021;28;20069;-65
2022/03/05 09:02:08;;;;;;;17.40;10.48;;;7.30;99.90;;;;;;5060003;28;20416;-65
2022/03/05 09:04:35;;;;;;;17.10;10.32;;;7.70;99.90;;;;;;5073660;28;20110;-66
2022/03/05 09:07:01;;;;;;;18.70;11.57;;;7.90;99.90;;;;;;5076864;28;20036;-66
2022/03/05 09:09:27;;;;;;;18.90;11.23;;;8.20;99.90;;;;;;5066317;28;20037;-65
2022/03/05 09:11:53;;;;;;;21.02;11.95;;;8.30;97.10;;;;;;5074012;28;20052;-65
2022/03/05 09:14:19;;;;;;;18.15;12.18;;;8.50;99.90;;;;;;5056502;28;20054;-66
2022/03/05 09:16:44;;;;;;;17.55;11.43;;;8.60;99.70;;;;;;5061514;28;20043;-66
2022/03/05 09:19:10;;;;;;;17.55;11.55;;;8.70;99.30;;;;;;5076250;28;20053;-66
2022/03/05 09:21:36;;;;;;;18.85;12.18;;;9.00;99.70;;;;;;5076384;28;20040;-66
2022/03/05 09:24:04;;;;;;;18.17;11.88;;;9.10;98.90;;;;;;5059529;28;20052;-66
2022/03/05 09:26:31;;;;;;;18.27;10.90;;;9.30;98.80;;;;;;5066912;28;20098;-66
2022/03/05 09:28:57;;;;;;;17.33;11.20;;;9.60;96.00;;;;;;5091974;28;20400;-66
2022/03/05 09:31:22;;;;;;;17.42;11.88;;;9.70;95.00;;;;;;5076339;28;20089;-66
2022/03/05 09:33:48;;;;;;;24.27;12.85;;;9.70;92.20;;;;;;5076242;28;20484;-66
2022/03/05 09:36:14;;;;;;;19.10;12.75;;;9.70;90.40;;;;;;5076123;28;20036;-66
2022/03/05 09:38:40;;;;;;;20.30;12.70;;;9.80;90.50;;;;;;5076108;28;20078;-66
2022/03/05 09:41:07;;;;;;;17.50;12.10;;;9.80;91.00;;;;;;5092805;28;20511;-66
2022/03/05 09:43:34;;;;;;;18.40;12.38;;;9.80;89.00;;;;;;5080300;28;20055;-66
2022/03/05 09:46:00;;;;;;;22.83;13.70;;;9.90;90.80;;;;;;5075889;28;20500;-66
2022/03/05 09:48:27;;;;;;;22.83;13.52;;;10.20;87.50;;;;;;5059268;28;20051;-67
2022/03/05 09:50:55;;;;;;;16.73;12.43;;;10.40;87.60;;;;;;5076041;28;20488;-66
2022/03/05 09:53:21;;;;;;;19.42;12.48;;;10.50;86.80;;;;;;5075896;28;20048;-66
2022/03/05 09:55:50;;;;;;;19.95;13.98;;;10.60;86.90;;;;;;5073554;28;20036;-65
2022/03/05 09:58:16;;;;;;;20.10;12.93;;;10.90;83.10;;;;;;5075857;28;20039;-68
2022/03/05 10:00:44;;;;;;;18.02;13.20;;;11.10;83.30;;;;;;5075984;28;20036;-67
2022/03/05 10:03:13;;;;;;;19.88;12.88;;;11.10;82.60;;;;;;5075603;28;20139;-67
2022/03/05 10:05:41;;;;;;;20.50;13.70;;;11.20;81.90;;;;;;5075551;28;20101;-66
2022/03/05 10:08:10;;;;;;;21.33;14.38;;;11.50;80.80;;;;;;5075565;28;20127;-67
2022/03/05 10:10:45;;;;;;;20.75;13.85;;;11.70;77.70;;;;;;5075475;28;20123;-67
2022/03/05 10:13:28;;;;;;;19.38;13.45;;;12.00;77.50;;;;;;5075398;28;20139;-66
2022/03/05 10:16:03;;;;;;;19.58;13.82;;;12.30;76.90;;;;;;5076136;28;20407;-66
2022/03/05 10:18:37;;;;;;;19.48;11.95;;;12.30;75.90;;;;;;5095656;28;20584;-65
2022/03/05 10:21:06;;;;;;;21.55;13.85;;;12.20;70.00;;;;;;5095342;28;20046;-64
2022/03/05 10:23:42;;;;;;;20.90;14.43;;;12.10;70.00;;;;;;5092674;28;20055;-64
2022/03/05 10:26:10;;;;;;;22.58;14.68;;;12.10;72.20;;;;;;5073155;28;20369;-65
2022/03/05 10:28:38;;;;;;;20.80;13.98;;;12.20;71.90;;;;;;5075013;28;20488;-64
2022/03/05 10:31:09;;;;;;;19.20;13.50;;;12.50;72.40;;;;;;5058382;28;20040;-66
2022/03/05 10:33:48;;;;;;;20.30;14.23;;;12.80;70.00;;;;;;5075004;28;20036;-65
2022/03/05 10:36:22;;;;;;;19.73;12.93;;;12.90;69.50;;;;;;5075178;28;20499;-65
2022/03/05 10:38:52;;;;;;;19.55;13.68;;;13.00;68.60;;;;;;5058411;28;20044;-65
2022/03/05 10:41:31;;;;;;;21.20;14.30;;;13.10;68.10;;;;;;5074719;28;20123;-65
2022/03/05 10:44:23;;;;;;;21.55;14.80;;;13.10;67.30;;;;;;5074629;28;20046;-65
2022/03/05 10:47:00;;;;;;;21.13;14.82;;;13.10;62.30;;;;;;5070947;28;20051;-65
2022/03/05 10:49:38;;;;;;;18.02;14.15;;;13.00;63.10;;;;;;5074349;28;20036;-65
2022/03/05 10:52:06;;;;;;;23.33;15.35;;;12.80;61.20;;;;;;5074517;28;20040;-66
2022/03/05 10:54:41;;;;;;;23.52;14.95;;;12.90;65.10;;;;;;5074659;28;20074;-66
2022/03/05 10:57:23;;;;;;;20.20;13.88;;;13.00;63.70;;;;;;5072003;28;20075;-66
2022/03/05 10:59:52;;;;;;;20.85;14.40;;;12.90;63.70;;;;;;5059330;28;20519;-65
2022/03/05 11:02:19;;;;;;;24.38;15.50;;;12.80;60.50;;;;;;5074317;28;20493;-65
2022/03/05 11:04:46;;;;;;;20.33;14.05;;;13.10;62.80;;;;;;5074751;28;20425;-65
2022/03/05 11:07:17;;;;;;;20.23;12.73;;;13.30;61.00;;;;;;5057789;28;20440;-66
2022/03/05 11:09:44;;;;;;;21.02;11.75;;;13.30;61.10;;;;;;5074520;28;20413;-64
2022/03/05 11:12:16;;;;;;;21.10;13.77;;;12.90;56.50;;;;;;5057596;28;20119;-64
2022/03/05 11:14:50;;;;;;;22.35;13.45;;;12.60;59.10;;;;;;5092541;28;20036;-64
2022/03/05 11:17:16;;;;;;;21.65;14.73;;;12.60;59.80;;;;;;5073981;28;20522;-65
2022/03/05 11:19:43;;;;;;;23.92;15.30;;;12.60;59.40;;;;;;5057762;28;20038;-65
2022/03/05 11:22:11;;;;;;;18.67;12.43;;;12.60;59.20;;;;;;5074082;28;20052;-65
2022/03/05 11:24:44;;;;;;;19.85;13.32;;;12.70;59.40;;;;;;5073526;28;20056;-65
2022/03/05 11:27:15;;;;;;;20.92;13.68;;;12.50;57.50;;;;;;5055190;28;20032;-65
2022/03/05 11:30:04;;;;;;;23.00;14.90;;;12.30;58.70;;;;;;5074204;28;20047;-66
2022/03/05 11:32:34;;;;;;;22.10;14.05;;;12.50;60.30;;;;;;5057519;28;20040;-67
2022/03/05 11:35:00;;;;;;;24.42;15.10;;;12.90;61.80;;;;;;5074277;28;20058;-68
2022/03/05 11:37:30;;;;;;;24.65;16.20;;;13.30;58.50;;;;;;5074219;28;20105;-66
2022/03/05 11:39:55;;;;;;;22.55;14.85;;;13.40;57.90;;;;;;5057436;28;20043;-66
2022/03/05 11:42:30;;;;;;;20.33;13.05;;;13.60;58.70;;;;;;5074047;28;20048;-66
2022/03/05 11:44:57;;;;;;;19.20;13.30;;;13.70;56.10;;;;;;5073957;28;20122;-66
2022/03/05 11:47:28;;;;;;;19.63;12.45;;;13.60;55.30;;;;;;5073929;28;20044;-65
2022/03/05 11:50:00;;;;;;;21.08;14.50;;;13.00;55.20;;;;;;5074203;28;20361;-65
2022/03/05 11:52:38;;;;;;;21.98;13.88;;;12.60;57.10;;;;;;5057442;28;20101;-65
2022/03/05 11:55:15;;;;;;;18.58;12.90;;;12.60;57.80;;;;;;5073857;28;20040;-65
2022/03/05 11:58:02;;;;;;;21.65;14.30;;;12.90;57.50;;;;;;5056738;28;20141;-65
2022/03/05 12:00:31;;;;;;;20.95;14.20;;;13.00;57.30;;;;;;5057291;28;20040;-66
2022/03/05 12:02:58;;;;;;;25.48;15.77;;;13.10;58.40;;;;;;5072942;28;20086;-65
2022/03/05 12:05:50;;;;;;;21.13;14.48;;;13.50;58.50;;;;;;5074047;28;20460;-66
2022/03/05 12:08:22;;;;;;;20.08;13.10;;;13.80;57.70;;;;;;5068943;28;20048;-65
2022/03/05 12:11:08;;;;;;;22.92;14.32;;;13.80;55.20;;;;;;5037095;28;20032;-66
2022/03/05 12:13:42;;;;;;;21.48;15.18;;;13.70;55.70;;;;;;5053533;28;20052;-65
2022/03/05 12:16:19;;;;;;;22.40;15.05;;;14.10;58.70;;;;;;5055908;28;20044;-65
2022/03/05 12:18:46;;;;;;;23.75;15.27;;;14.40;57.10;;;;;;5073589;28;20391;-65
2022/03/05 12:21:18;;;;;;;21.90;14.80;;;14.40;57.00;;;;;;5073517;28;20040;-65
2022/03/05 12:23:44;;;;;;;25.23;12.98;;;13.80;54.30;;;;;;5073600;28;20126;-65
2022/03/05 12:26:15;;;;;;;19.90;14.07;;;13.30;55.50;;;;;;5071159;28;20572;-66
2022/03/05 12:28:42;;;;;;;20.30;13.30;;;13.00;57.10;;;;;;5073659;28;20036;-66
2022/03/05 12:31:21;;;;;;;21.33;14.50;;;13.00;56.50;;;;;;5073882;28;20130;-65
2022/03/05 12:33:48;;;;;;;21.35;14.35;;;12.80;56.90;;;;;;5073484;28;20043;-65
2022/03/05 12:36:17;;;;;;;21.48;15.07;;;12.90;57.40;;;;;;5073716;28;20031;-65
2022/03/05 12:38:52;;;;;;;23.40;15.07;;;13.10;57.30;;;;;;5068268;28;20144;-65